Terminal Aerodrome Forecast
Issued by NWS

Home | Current Version | Previous Version | Text Only | Print | Product List | Glossary On
Versions: 1 2 3 4 5 6 7 8 9 10 11 12 13 14 15 16 17 18 19 20 21 22 23 24 25 26
000
FTUS41 KBOX 301737
TAFBED
TAF
KBED 301737Z 3018/3118 29005KT 1SM -SN BR VV006
     FM301830 32004KT P6SM SCT006 OVC020
     FM302200 32008KT P6SM OVC010
     FM310000 32011G25KT P6SM OVC025
     FM310300 32013G33KT P6SM OVC045
     FM311700 31015G34KT P6SM SCT200=

USA.gov is the U.S. government's official web portal to all federal, state and local government web resources and services.